sensor_id;sensor_type;location;lat;lon;timestamp;P1;durP1;ratioP1;P2;durP2;ratioP2
37595;SDS011;23442;48.182;11.552;2022-07-23T00:01:34;21.00;;;9.68;;
37595;SDS011;23442;48.182;11.552;2022-07-23T00:04:00;23.67;;;9.93;;
37595;SDS011;23442;48.182;11.552;2022-07-23T00:06:26;23.60;;;9.95;;
37595;SDS011;23442;48.182;11.552;2022-07-23T00:09:00;18.67;;;8.70;;
37595;SDS011;23442;48.182;11.552;2022-07-23T00:11:26;24.45;;;9.77;;
37595;SDS011;23442;48.182;11.552;2022-07-23T00:13:52;32.45;;;10.80;;
37595;SDS011;23442;48.182;11.552;2022-07-23T00:16:20;25.00;;;9.98;;
37595;SDS011;23442;48.182;11.552;2022-07-23T00:18:46;20.55;;;9.48;;
37595;SDS011;23442;48.182;11.552;2022-07-23T00:21:12;24.15;;;9.35;;
37595;SDS011;23442;48.182;11.552;2022-07-23T00:23:40;22.65;;;9.43;;
37595;SDS011;23442;48.182;11.552;2022-07-23T00:26:06;30.60;;;10.75;;
37595;SDS011;23442;48.182;11.552;2022-07-23T00:28:34;22.55;;;9.13;;
37595;SDS011;23442;48.182;11.552;2022-07-23T00:31:01;27.20;;;9.57;;
37595;SDS011;23442;48.182;11.552;2022-07-23T00:33:27;21.25;;;9.27;;
37595;SDS011;23442;48.182;11.552;2022-07-23T00:35:53;40.58;;;12.60;;
37595;SDS011;23442;48.182;11.552;2022-07-23T00:38:20;21.00;;;9.10;;
37595;SDS011;23442;48.182;11.552;2022-07-23T00:40:54;27.52;;;10.18;;
37595;SDS011;23442;48.182;11.552;2022-07-23T00:43:20;21.92;;;9.18;;
37595;SDS011;23442;48.182;11.552;2022-07-23T00:45:53;24.05;;;9.77;;
37595;SDS011;23442;48.182;11.552;2022-07-23T00:48:26;26.52;;;9.30;;
37595;SDS011;23442;48.182;11.552;2022-07-23T00:50:52;24.05;;;9.55;;
37595;SDS011;23442;48.182;11.552;2022-07-23T00:53:19;18.40;;;8.93;;
37595;SDS011;23442;48.182;11.552;2022-07-23T00:55:45;26.98;;;9.85;;
37595;SDS011;23442;48.182;11.552;2022-07-23T00:58:17;20.13;;;9.63;;
37595;SDS011;23442;48.182;11.552;2022-07-23T01:00:44;21.92;;;9.25;;
37595;SDS011;23442;48.182;11.552;2022-07-23T01:03:10;26.58;;;10.93;;
37595;SDS011;23442;48.182;11.552;2022-07-23T01:05:36;30.33;;;10.63;;
37595;SDS011;23442;48.182;11.552;2022-07-23T01:08:03;22.83;;;9.23;;
37595;SDS011;23442;48.182;11.552;2022-07-23T01:10:31;22.05;;;9.30;;
37595;SDS011;23442;48.182;11.552;2022-07-23T01:13:15;22.38;;;9.77;;
37595;SDS011;23442;48.182;11.552;2022-07-23T01:15:42;29.85;;;11.25;;
37595;SDS011;23442;48.182;11.552;2022-07-23T01:18:08;32.08;;;11.48;;
37595;SDS011;23442;48.182;11.552;2022-07-23T01:20:35;17.50;;;10.20;;
37595;SDS011;23442;48.182;11.552;2022-07-23T01:23:01;20.40;;;10.60;;
37595;SDS011;23442;48.182;11.552;2022-07-23T01:25:32;22.85;;;11.23;;
37595;SDS011;23442;48.182;11.552;2022-07-23T01:28:02;19.50;;;8.98;;
37595;SDS011;23442;48.182;11.552;2022-07-23T01:30:28;21.98;;;9.50;;
37595;SDS011;23442;48.182;11.552;2022-07-23T01:32:54;22.75;;;9.40;;
37595;SDS011;23442;48.182;11.552;2022-07-23T01:35:22;30.85;;;10.38;;
37595;SDS011;23442;48.182;11.552;2022-07-23T01:37:49;18.38;;;8.95;;
37595;SDS011;23442;48.182;11.552;2022-07-23T01:40:15;24.42;;;9.50;;
37595;SDS011;23442;48.182;11.552;2022-07-23T01:42:41;21.63;;;7.63;;
37595;SDS011;23442;48.182;11.552;2022-07-23T01:45:07;27.63;;;9.68;;
37595;SDS011;23442;48.182;11.552;2022-07-23T01:47:34;15.98;;;7.30;;
37595;SDS011;23442;48.182;11.552;2022-07-23T01:50:00;18.27;;;8.60;;
37595;SDS011;23442;48.182;11.552;2022-07-23T01:52:26;20.73;;;7.97;;
37595;SDS011;23442;48.182;11.552;2022-07-23T01:54:52;21.63;;;8.60;;
37595;SDS011;23442;48.182;11.552;2022-07-23T01:57:19;19.52;;;8.70;;
37595;SDS011;23442;48.182;11.552;2022-07-23T01:59:45;17.65;;;7.60;;
37595;SDS011;23442;48.182;11.552;2022-07-23T02:02:14;14.85;;;7.15;;
37595;SDS011;23442;48.182;11.552;2022-07-23T02:04:40;18.88;;;8.18;;
37595;SDS011;23442;48.182;11.552;2022-07-23T02:07:06;25.35;;;9.02;;
37595;SDS011;23442;48.182;11.552;2022-07-23T02:09:32;15.90;;;7.13;;
37595;SDS011;23442;48.182;11.552;2022-07-23T02:11:59;12.82;;;6.63;;
37595;SDS011;23442;48.182;11.552;2022-07-23T02:14:26;20.58;;;8.60;;
37595;SDS011;23442;48.182;11.552;2022-07-23T02:16:55;17.13;;;7.43;;
37595;SDS011;23442;48.182;11.552;2022-07-23T02:19:21;15.38;;;7.38;;
37595;SDS011;23442;48.182;11.552;2022-07-23T02:21:47;15.85;;;6.90;;
37595;SDS011;23442;48.182;11.552;2022-07-23T02:24:16;14.40;;;6.32;;
37595;SDS011;23442;48.182;11.552;2022-07-23T02:26:42;12.20;;;5.60;;
37595;SDS011;23442;48.182;11.552;2022-07-23T02:29:09;10.00;;;4.85;;
37595;SDS011;23442;48.182;11.552;2022-07-23T02:31:37;14.68;;;6.20;;
37595;SDS011;23442;48.182;11.552;2022-07-23T02:34:04;14.48;;;5.68;;
37595;SDS011;23442;48.182;11.552;2022-07-23T02:36:30;16.33;;;6.78;;
37595;SDS011;23442;48.182;11.552;2022-07-23T02:38:59;15.05;;;5.75;;
37595;SDS011;23442;48.182;11.552;2022-07-23T02:41:25;16.48;;;6.57;;
37595;SDS011;23442;48.182;11.552;2022-07-23T02:43:52;12.82;;;6.40;;
37595;SDS011;23442;48.182;11.552;2022-07-23T02:46:18;9.48;;;4.80;;
37595;SDS011;23442;48.182;11.552;2022-07-23T02:48:44;16.60;;;6.30;;
37595;SDS011;23442;48.182;11.552;2022-07-23T02:51:12;18.35;;;5.80;;
37595;SDS011;23442;48.182;11.552;2022-07-23T02:53:38;14.55;;;5.68;;
37595;SDS011;23442;48.182;11.552;2022-07-23T02:56:23;15.95;;;6.05;;
37595;SDS011;23442;48.182;11.552;2022-07-23T02:58:49;12.05;;;5.40;;
37595;SDS011;23442;48.182;11.552;2022-07-23T03:01:15;12.43;;;5.15;;
37595;SDS011;23442;48.182;11.552;2022-07-23T03:03:42;13.68;;;5.60;;
37595;SDS011;23442;48.182;11.552;2022-07-23T03:06:11;14.50;;;5.45;;
37595;SDS011;23442;48.182;11.552;2022-07-23T03:08:37;11.98;;;5.00;;
37595;SDS011;23442;48.182;11.552;2022-07-23T03:11:03;25.25;;;7.85;;
37595;SDS011;23442;48.182;11.552;2022-07-23T03:13:31;16.48;;;5.82;;
37595;SDS011;23442;48.182;11.552;2022-07-23T03:16:00;16.77;;;6.45;;
37595;SDS011;23442;48.182;11.552;2022-07-23T03:18:26;14.38;;;5.35;;
37595;SDS011;23442;48.182;11.552;2022-07-23T03:20:52;11.70;;;4.72;;
37595;SDS011;23442;48.182;11.552;2022-07-23T03:23:18;8.10;;;4.00;;
37595;SDS011;23442;48.182;11.552;2022-07-23T03:25:44;13.75;;;5.03;;
37595;SDS011;23442;48.182;11.552;2022-07-23T03:28:13;9.00;;;4.22;;
37595;SDS011;23442;48.182;11.552;2022-07-23T03:30:41;14.32;;;5.10;;
37595;SDS011;23442;48.182;11.552;2022-07-23T03:33:08;17.33;;;5.68;;
37595;SDS011;23442;48.182;11.552;2022-07-23T03:35:34;17.48;;;5.97;;
37595;SDS011;23442;48.182;11.552;2022-07-23T03:38:03;11.18;;;4.78;;
37595;SDS011;23442;48.182;11.552;2022-07-23T03:40:29;13.80;;;5.60;;
37595;SDS011;23442;48.182;11.552;2022-07-23T03:42:55;14.02;;;5.72;;
37595;SDS011;23442;48.182;11.552;2022-07-23T03:45:21;13.45;;;5.10;;
37595;SDS011;23442;48.182;11.552;2022-07-23T03:47:48;15.20;;;5.95;;
37595;SDS011;23442;48.182;11.552;2022-07-23T03:50:14;16.52;;;6.55;;
37595;SDS011;23442;48.182;11.552;2022-07-23T03:52:40;7.18;;;4.20;;
37595;SDS011;23442;48.182;11.552;2022-07-23T03:55:06;13.45;;;5.55;;
37595;SDS011;23442;48.182;11.552;2022-07-23T03:57:36;13.35;;;5.55;;
37595;SDS011;23442;48.182;11.552;2022-07-23T04:00:03;14.00;;;5.88;;
37595;SDS011;23442;48.182;11.552;2022-07-23T04:02:31;16.77;;;6.65;;
37595;SDS011;23442;48.182;11.552;2022-07-23T04:04:57;13.43;;;6.03;;
37595;SDS011;23442;48.182;11.552;2022-07-23T04:07:24;14.75;;;6.30;;
37595;SDS011;23442;48.182;11.552;2022-07-23T04:09:50;15.15;;;5.97;;
37595;SDS011;23442;48.182;11.552;2022-07-23T04:12:16;11.63;;;5.90;;
37595;SDS011;23442;48.182;11.552;2022-07-23T04:14:43;15.68;;;5.95;;
37595;SDS011;23442;48.182;11.552;2022-07-23T04:17:09;13.57;;;5.78;;
37595;SDS011;23442;48.182;11.552;2022-07-23T04:19:36;20.20;;;7.55;;
37595;SDS011;23442;48.182;11.552;2022-07-23T04:22:05;18.65;;;7.18;;
37595;SDS011;23442;48.182;11.552;2022-07-23T04:24:32;9.60;;;5.47;;
37595;SDS011;23442;48.182;11.552;2022-07-23T04:26:58;15.05;;;6.03;;
37595;SDS011;23442;48.182;11.552;2022-07-23T04:29:25;15.93;;;6.72;;
37595;SDS011;23442;48.182;11.552;2022-07-23T04:31:51;14.90;;;6.28;;
37595;SDS011;23442;48.182;11.552;2022-07-23T04:34:17;17.60;;;7.38;;
37595;SDS011;23442;48.182;11.552;2022-07-23T04:36:43;15.55;;;5.65;;
37595;SDS011;23442;48.182;11.552;2022-07-23T04:39:10;17.17;;;6.32;;
37595;SDS011;23442;48.182;11.552;2022-07-23T04:41:36;15.15;;;5.72;;
37595;SDS011;23442;48.182;11.552;2022-07-23T04:44:02;14.68;;;6.05;;
37595;SDS011;23442;48.182;11.552;2022-07-23T04:46:29;14.60;;;6.05;;
37595;SDS011;23442;48.182;11.552;2022-07-23T04:48:55;14.65;;;5.93;;
37595;SDS011;23442;48.182;11.552;2022-07-23T04:51:21;10.90;;;5.65;;
37595;SDS011;23442;48.182;11.552;2022-07-23T04:53:47;13.40;;;6.10;;
37595;SDS011;23442;48.182;11.552;2022-07-23T04:56:13;15.27;;;6.13;;
37595;SDS011;23442;48.182;11.552;2022-07-23T04:58:40;14.85;;;6.03;;
37595;SDS011;23442;48.182;11.552;2022-07-23T05:01:06;16.05;;;6.47;;
37595;SDS011;23442;48.182;11.552;2022-07-23T05:03:32;16.20;;;6.45;;
37595;SDS011;23442;48.182;11.552;2022-07-23T05:05:58;21.33;;;7.80;;
37595;SDS011;23442;48.182;11.552;2022-07-23T05:08:25;13.35;;;6.10;;
37595;SDS011;23442;48.182;11.552;2022-07-23T05:10:54;16.75;;;6.63;;
37595;SDS011;23442;48.182;11.552;2022-07-23T05:13:20;14.65;;;6.18;;
37595;SDS011;23442;48.182;11.552;2022-07-23T05:15:54;13.55;;;6.75;;
37595;SDS011;23442;48.182;11.552;2022-07-23T05:18:20;15.43;;;6.35;;
37595;SDS011;23442;48.182;11.552;2022-07-23T05:20:46;16.52;;;6.97;;
37595;SDS011;23442;48.182;11.552;2022-07-23T05:23:12;14.88;;;6.32;;
37595;SDS011;23442;48.182;11.552;2022-07-23T05:25:39;15.80;;;6.43;;
37595;SDS011;23442;48.182;11.552;2022-07-23T05:28:05;19.33;;;7.25;;
37595;SDS011;23442;48.182;11.552;2022-07-23T05:30:31;14.13;;;6.30;;
37595;SDS011;23442;48.182;11.552;2022-07-23T05:32:57;12.70;;;5.80;;
37595;SDS011;23442;48.182;11.552;2022-07-23T05:35:24;18.30;;;6.90;;
37595;SDS011;23442;48.182;11.552;2022-07-23T05:37:53;12.30;;;6.13;;
37595;SDS011;23442;48.182;11.552;2022-07-23T05:40:19;13.57;;;6.63;;
37595;SDS011;23442;48.182;11.552;2022-07-23T05:42:45;15.70;;;7.03;;
37595;SDS011;23442;48.182;11.552;2022-07-23T05:45:11;20.35;;;7.75;;
37595;SDS011;23442;48.182;11.552;2022-07-23T05:47:41;13.85;;;6.22;;
37595;SDS011;23442;48.182;11.552;2022-07-23T05:50:12;17.25;;;6.60;;
37595;SDS011;23442;48.182;11.552;2022-07-23T05:52:39;13.18;;;6.38;;
37595;SDS011;23442;48.182;11.552;2022-07-23T05:55:06;15.23;;;6.53;;
37595;SDS011;23442;48.182;11.552;2022-07-23T05:57:32;16.27;;;6.57;;
37595;SDS011;23442;48.182;11.552;2022-07-23T05:59:59;18.55;;;7.45;;
37595;SDS011;23442;48.182;11.552;2022-07-23T06:02:25;14.38;;;6.88;;
37595;SDS011;23442;48.182;11.552;2022-07-23T06:04:51;14.70;;;6.95;;
37595;SDS011;23442;48.182;11.552;2022-07-23T06:07:17;13.32;;;6.68;;
37595;SDS011;23442;48.182;11.552;2022-07-23T06:09:43;18.75;;;7.80;;
37595;SDS011;23442;48.182;11.552;2022-07-23T06:12:31;14.10;;;6.45;;
37595;SDS011;23442;48.182;11.552;2022-07-23T06:14:56;16.95;;;6.93;;
37595;SDS011;23442;48.182;11.552;2022-07-23T06:17:22;15.68;;;7.25;;
37595;SDS011;23442;48.182;11.552;2022-07-23T06:19:48;16.65;;;6.85;;
37595;SDS011;23442;48.182;11.552;2022-07-23T06:22:18;11.02;;;6.65;;
37595;SDS011;23442;48.182;11.552;2022-07-23T06:24:44;15.27;;;7.13;;
37595;SDS011;23442;48.182;11.552;2022-07-23T06:27:10;24.00;;;9.10;;
37595;SDS011;23442;48.182;11.552;2022-07-23T06:29:36;19.52;;;7.97;;
37595;SDS011;23442;48.182;11.552;2022-07-23T06:32:03;14.68;;;7.60;;
37595;SDS011;23442;48.182;11.552;2022-07-23T06:34:30;18.40;;;7.43;;
37595;SDS011;23442;48.182;11.552;2022-07-23T06:36:56;15.75;;;7.22;;
37595;SDS011;23442;48.182;11.552;2022-07-23T06:39:22;16.63;;;6.95;;
37595;SDS011;23442;48.182;11.552;2022-07-23T06:41:48;13.43;;;7.18;;
37595;SDS011;23442;48.182;11.552;2022-07-23T06:44:14;14.48;;;7.72;;
37595;SDS011;23442;48.182;11.552;2022-07-23T06:46:40;13.35;;;6.68;;
37595;SDS011;23442;48.182;11.552;2022-07-23T06:49:07;17.60;;;8.45;;
37595;SDS011;23442;48.182;11.552;2022-07-23T06:51:33;17.65;;;8.18;;
37595;SDS011;23442;48.182;11.552;2022-07-23T06:53:59;16.42;;;7.47;;
37595;SDS011;23442;48.182;11.552;2022-07-23T06:56:26;19.08;;;8.60;;
37595;SDS011;23442;48.182;11.552;2022-07-23T06:58:52;16.95;;;8.30;;
37595;SDS011;23442;48.182;11.552;2022-07-23T07:01:18;20.20;;;8.45;;
37595;SDS011;23442;48.182;11.552;2022-07-23T07:03:44;15.25;;;7.50;;
37595;SDS011;23442;48.182;11.552;2022-07-23T07:06:11;17.30;;;7.80;;
37595;SDS011;23442;48.182;11.552;2022-07-23T07:08:37;15.25;;;7.90;;
37595;SDS011;23442;48.182;11.552;2022-07-23T07:11:03;13.63;;;6.70;;
37595;SDS011;23442;48.182;11.552;2022-07-23T07:13:29;13.20;;;7.05;;
37595;SDS011;23442;48.182;11.552;2022-07-23T07:15:56;23.38;;;10.18;;
37595;SDS011;23442;48.182;11.552;2022-07-23T07:18:22;16.85;;;8.13;;
37595;SDS011;23442;48.182;11.552;2022-07-23T07:20:48;13.90;;;7.78;;
37595;SDS011;23442;48.182;11.552;2022-07-23T07:23:14;15.05;;;7.30;;
37595;SDS011;23442;48.182;11.552;2022-07-23T07:25:40;21.95;;;9.13;;
37595;SDS011;23442;48.182;11.552;2022-07-23T07:28:06;19.80;;;8.57;;
37595;SDS011;23442;48.182;11.552;2022-07-23T07:30:33;22.25;;;9.43;;
37595;SDS011;23442;48.182;11.552;2022-07-23T07:32:59;19.15;;;8.60;;
37595;SDS011;23442;48.182;11.552;2022-07-23T07:35:25;20.92;;;8.50;;
37595;SDS011;23442;48.182;11.552;2022-07-23T07:37:51;16.67;;;8.10;;
37595;SDS011;23442;48.182;11.552;2022-07-23T07:40:18;18.65;;;8.32;;
37595;SDS011;23442;48.182;11.552;2022-07-23T07:42:45;18.10;;;8.95;;
37595;SDS011;23442;48.182;11.552;2022-07-23T07:45:15;33.88;;;11.98;;
37595;SDS011;23442;48.182;11.552;2022-07-23T07:47:42;21.75;;;8.93;;
37595;SDS011;23442;48.182;11.552;2022-07-23T07:50:08;17.40;;;7.95;;
37595;SDS011;23442;48.182;11.552;2022-07-23T07:52:35;25.30;;;9.35;;
37595;SDS011;23442;48.182;11.552;2022-07-23T07:55:02;19.65;;;8.48;;
37595;SDS011;23442;48.182;11.552;2022-07-23T07:57:29;16.70;;;8.50;;
37595;SDS011;23442;48.182;11.552;2022-07-23T07:59:56;19.08;;;9.10;;
37595;SDS011;23442;48.182;11.552;2022-07-23T08:02:22;16.30;;;7.70;;
37595;SDS011;23442;48.182;11.552;2022-07-23T08:04:48;20.02;;;9.15;;
37595;SDS011;23442;48.182;11.552;2022-07-23T08:07:15;23.55;;;9.35;;
37595;SDS011;23442;48.182;11.552;2022-07-23T08:09:41;22.77;;;9.05;;
37595;SDS011;23442;48.182;11.552;2022-07-23T08:12:07;20.70;;;8.77;;
37595;SDS011;23442;48.182;11.552;2022-07-23T08:14:33;13.35;;;7.65;;
37595;SDS011;23442;48.182;11.552;2022-07-23T08:17:00;18.00;;;8.13;;
37595;SDS011;23442;48.182;11.552;2022-07-23T08:19:26;13.50;;;8.13;;
37595;SDS011;23442;48.182;11.552;2022-07-23T08:21:52;18.88;;;8.65;;
37595;SDS011;23442;48.182;11.552;2022-07-23T08:24:18;17.67;;;8.52;;
37595;SDS011;23442;48.182;11.552;2022-07-23T08:26:44;21.63;;;9.38;;
37595;SDS011;23442;48.182;11.552;2022-07-23T08:29:13;18.20;;;7.78;;
37595;SDS011;23442;48.182;11.552;2022-07-23T08:31:42;13.65;;;6.82;;
37595;SDS011;23442;48.182;11.552;2022-07-23T08:34:10;17.52;;;7.60;;
37595;SDS011;23442;48.182;11.552;2022-07-23T08:36:37;23.88;;;9.02;;
37595;SDS011;23442;48.182;11.552;2022-07-23T08:39:13;25.95;;;11.13;;
37595;SDS011;23442;48.182;11.552;2022-07-23T08:41:41;17.67;;;8.05;;
37595;SDS011;23442;48.182;11.552;2022-07-23T08:44:13;15.68;;;8.32;;
37595;SDS011;23442;48.182;11.552;2022-07-23T08:46:46;21.35;;;8.90;;
37595;SDS011;23442;48.182;11.552;2022-07-23T08:49:13;16.35;;;7.60;;
37595;SDS011;23442;48.182;11.552;2022-07-23T08:51:40;17.52;;;8.70;;
37595;SDS011;23442;48.182;11.552;2022-07-23T08:54:06;17.00;;;8.98;;
37595;SDS011;23442;48.182;11.552;2022-07-23T08:56:32;19.70;;;8.50;;
37595;SDS011;23442;48.182;11.552;2022-07-23T08:58:58;21.00;;;9.27;;
37595;SDS011;23442;48.182;11.552;2022-07-23T09:01:24;22.35;;;8.55;;
37595;SDS011;23442;48.182;11.552;2022-07-23T09:03:51;20.80;;;8.65;;
37595;SDS011;23442;48.182;11.552;2022-07-23T09:06:17;19.25;;;9.20;;
37595;SDS011;23442;48.182;11.552;2022-07-23T09:08:44;26.45;;;10.63;;
37595;SDS011;23442;48.182;11.552;2022-07-23T09:11:12;18.42;;;8.57;;
37595;SDS011;23442;48.182;11.552;2022-07-23T09:13:51;26.55;;;9.80;;
37595;SDS011;23442;48.182;11.552;2022-07-23T09:16:28;16.85;;;7.88;;
37595;SDS011;23442;48.182;11.552;2022-07-23T09:18:56;21.58;;;9.07;;
37595;SDS011;23442;48.182;11.552;2022-07-23T09:23:58;19.90;;;9.00;;
37595;SDS011;23442;48.182;11.552;2022-07-23T09:26:39;22.50;;;10.05;;
37595;SDS011;23442;48.182;11.552;2022-07-23T09:29:16;26.08;;;9.52;;
37595;SDS011;23442;48.182;11.552;2022-07-23T09:32:05;23.80;;;9.38;;
37595;SDS011;23442;48.182;11.552;2022-07-23T09:34:33;19.60;;;8.20;;
37595;SDS011;23442;48.182;11.552;2022-07-23T09:37:14;23.63;;;9.68;;
37595;SDS011;23442;48.182;11.552;2022-07-23T09:39:42;22.45;;;9.15;;
37595;SDS011;23442;48.182;11.552;2022-07-23T09:42:22;23.92;;;9.48;;
37595;SDS011;23442;48.182;11.552;2022-07-23T09:44:50;15.73;;;8.10;;
37595;SDS011;23442;48.182;11.552;2022-07-23T09:47:18;28.00;;;9.77;;
37595;SDS011;23442;48.182;11.552;2022-07-23T09:52:56;17.38;;;8.52;;
37595;SDS011;23442;48.182;11.552;2022-07-23T09:55:21;29.25;;;10.13;;
37595;SDS011;23442;48.182;11.552;2022-07-23T09:58:01;15.80;;;7.90;;
37595;SDS011;23442;48.182;11.552;2022-07-23T10:00:29;21.63;;;9.13;;
37595;SDS011;23442;48.182;11.552;2022-07-23T10:02:56;22.27;;;8.38;;
37595;SDS011;23442;48.182;11.552;2022-07-23T10:05:23;19.83;;;8.27;;
37595;SDS011;23442;48.182;11.552;2022-07-23T10:07:50;25.70;;;9.23;;
37595;SDS011;23442;48.182;11.552;2022-07-23T10:10:17;19.65;;;7.65;;
37595;SDS011;23442;48.182;11.552;2022-07-23T10:12:44;27.05;;;8.60;;
37595;SDS011;23442;48.182;11.552;2022-07-23T10:15:16;26.50;;;8.60;;
37595;SDS011;23442;48.182;11.552;2022-07-23T10:17:42;25.15;;;9.60;;
37595;SDS011;23442;48.182;11.552;2022-07-23T10:20:09;24.73;;;9.13;;
37595;SDS011;23442;48.182;11.552;2022-07-23T10:22:36;28.17;;;9.82;;
37595;SDS011;23442;48.182;11.552;2022-07-23T10:27:43;16.27;;;7.47;;
37595;SDS011;23442;48.182;11.552;2022-07-23T10:33:09;24.98;;;8.85;;
37595;SDS011;23442;48.182;11.552;2022-07-23T10:36:20;31.35;;;9.82;;
37595;SDS011;23442;48.182;11.552;2022-07-23T10:41:40;26.90;;;8.88;;
37595;SDS011;23442;48.182;11.552;2022-07-23T10:49:31;22.27;;;8.45;;
37595;SDS011;23442;48.182;11.552;2022-07-23T10:57:25;26.77;;;8.57;;
37595;SDS011;23442;48.182;11.552;2022-07-23T11:02:33;17.77;;;6.88;;
37595;SDS011;23442;48.182;11.552;2022-07-23T11:05:02;24.52;;;8.35;;
37595;SDS011;23442;48.182;11.552;2022-07-23T11:07:37;16.05;;;6.70;;
37595;SDS011;23442;48.182;11.552;2022-07-23T11:10:48;31.92;;;9.50;;
37595;SDS011;23442;48.182;11.552;2022-07-23T11:32:35;45.38;;;12.15;;
37595;SDS011;23442;48.182;11.552;2022-07-23T11:34:48;18.98;;;7.80;;
37595;SDS011;23442;48.182;11.552;2022-07-23T11:37:29;19.17;;;7.78;;
37595;SDS011;23442;48.182;11.552;2022-07-23T11:39:59;28.05;;;9.75;;
37595;SDS011;23442;48.182;11.552;2022-07-23T11:42:26;44.60;;;12.90;;
37595;SDS011;23442;48.182;11.552;2022-07-23T11:44:52;27.20;;;9.68;;
37595;SDS011;23442;48.182;11.552;2022-07-23T11:47:23;28.42;;;11.15;;
37595;SDS011;23442;48.182;11.552;2022-07-23T11:49:57;43.00;;;17.90;;
37595;SDS011;23442;48.182;11.552;2022-07-23T11:52:25;55.00;;;23.98;;
37595;SDS011;23442;48.182;11.552;2022-07-23T11:54:53;59.78;;;25.10;;
37595;SDS011;23442;48.182;11.552;2022-07-23T11:57:29;33.50;;;13.80;;
37595;SDS011;23442;48.182;11.552;2022-07-23T12:02:37;77.10;;;32.78;;
37595;SDS011;23442;48.182;11.552;2022-07-23T12:05:04;48.63;;;19.90;;
37595;SDS011;23442;48.182;11.552;2022-07-23T12:07:41;68.20;;;30.48;;
37595;SDS011;23442;48.182;11.552;2022-07-23T12:10:11;62.97;;;27.60;;
37595;SDS011;23442;48.182;11.552;2022-07-23T12:12:43;58.90;;;26.65;;
37595;SDS011;23442;48.182;11.552;2022-07-23T12:15:20;61.60;;;22.63;;
37595;SDS011;23442;48.182;11.552;2022-07-23T12:17:56;45.83;;;20.52;;
37595;SDS011;23442;48.182;11.552;2022-07-23T12:20:24;31.30;;;13.48;;
37595;SDS011;23442;48.182;11.552;2022-07-23T12:22:54;36.63;;;15.60;;
37595;SDS011;23442;48.182;11.552;2022-07-23T12:25:25;55.13;;;21.40;;
37595;SDS011;23442;48.182;11.552;2022-07-23T12:30:35;43.55;;;15.48;;
37595;SDS011;23442;48.182;11.552;2022-07-23T12:33:08;36.92;;;14.50;;
37595;SDS011;23442;48.182;11.552;2022-07-23T12:35:37;34.90;;;14.27;;
37595;SDS011;23442;48.182;11.552;2022-07-23T12:38:08;30.63;;;12.60;;
37595;SDS011;23442;48.182;11.552;2022-07-23T12:40:49;28.48;;;11.45;;
37595;SDS011;23442;48.182;11.552;2022-07-23T12:48:28;24.92;;;10.10;;
37595;SDS011;23442;48.182;11.552;2022-07-23T12:51:05;26.05;;;11.32;;
37595;SDS011;23442;48.182;11.552;2022-07-23T12:53:33;24.73;;;11.10;;
37595;SDS011;23442;48.182;11.552;2022-07-23T12:58:43;31.60;;;11.63;;
37595;SDS011;23442;48.182;11.552;2022-07-23T13:06:41;33.50;;;11.40;;
37595;SDS011;23442;48.182;11.552;2022-07-23T13:09:10;28.20;;;10.70;;
37595;SDS011;23442;48.182;11.552;2022-07-23T13:11:40;27.80;;;10.02;;
37595;SDS011;23442;48.182;11.552;2022-07-23T13:14:07;29.23;;;10.63;;
37595;SDS011;23442;48.182;11.552;2022-07-23T13:16:33;28.85;;;10.23;;
37595;SDS011;23442;48.182;11.552;2022-07-23T13:18:59;23.75;;;9.18;;
37595;SDS011;23442;48.182;11.552;2022-07-23T13:21:26;22.05;;;9.30;;
37595;SDS011;23442;48.182;11.552;2022-07-23T13:23:53;23.58;;;9.52;;
37595;SDS011;23442;48.182;11.552;2022-07-23T13:26:20;19.75;;;8.40;;
37595;SDS011;23442;48.182;11.552;2022-07-23T13:28:46;33.88;;;11.20;;
37595;SDS011;23442;48.182;11.552;2022-07-23T13:31:13;23.02;;;9.45;;
37595;SDS011;23442;48.182;11.552;2022-07-23T13:33:39;15.38;;;7.97;;
37595;SDS011;23442;48.182;11.552;2022-07-23T13:36:05;28.50;;;10.02;;
37595;SDS011;23442;48.182;11.552;2022-07-23T13:38:32;34.15;;;10.82;;
37595;SDS011;23442;48.182;11.552;2022-07-23T13:40:58;21.77;;;9.18;;
37595;SDS011;23442;48.182;11.552;2022-07-23T13:43:24;35.75;;;13.25;;
37595;SDS011;23442;48.182;11.552;2022-07-23T13:45:51;31.23;;;11.63;;
37595;SDS011;23442;48.182;11.552;2022-07-23T13:48:18;21.42;;;9.77;;
37595;SDS011;23442;48.182;11.552;2022-07-23T13:50:45;21.35;;;9.18;;
37595;SDS011;23442;48.182;11.552;2022-07-23T13:53:13;31.52;;;10.90;;
37595;SDS011;23442;48.182;11.552;2022-07-23T13:55:41;30.27;;;10.27;;
37595;SDS011;23442;48.182;11.552;2022-07-23T13:58:08;51.53;;;14.90;;
37595;SDS011;23442;48.182;11.552;2022-07-23T14:00:36;28.30;;;10.32;;
37595;SDS011;23442;48.182;11.552;2022-07-23T14:03:03;32.05;;;11.20;;
37595;SDS011;23442;48.182;11.552;2022-07-23T14:05:30;29.42;;;10.75;;
37595;SDS011;23442;48.182;11.552;2022-07-23T14:07:56;31.20;;;11.10;;
37595;SDS011;23442;48.182;11.552;2022-07-23T14:10:23;25.00;;;9.63;;
37595;SDS011;23442;48.182;11.552;2022-07-23T14:12:51;26.90;;;10.57;;
37595;SDS011;23442;48.182;11.552;2022-07-23T14:15:20;26.27;;;10.15;;
37595;SDS011;23442;48.182;11.552;2022-07-23T14:17:47;24.67;;;9.80;;
37595;SDS011;23442;48.182;11.552;2022-07-23T14:20:13;21.83;;;9.18;;
37595;SDS011;23442;48.182;11.552;2022-07-23T14:22:40;31.55;;;11.48;;
37595;SDS011;23442;48.182;11.552;2022-07-23T14:25:07;30.00;;;10.85;;
37595;SDS011;23442;48.182;11.552;2022-07-23T14:27:34;34.15;;;11.30;;
37595;SDS011;23442;48.182;11.552;2022-07-23T14:30:02;24.20;;;10.20;;
37595;SDS011;23442;48.182;11.552;2022-07-23T14:32:30;31.15;;;11.52;;
37595;SDS011;23442;48.182;11.552;2022-07-23T14:34:56;30.13;;;11.13;;
37595;SDS011;23442;48.182;11.552;2022-07-23T14:37:22;21.05;;;9.68;;
37595;SDS011;23442;48.182;11.552;2022-07-23T14:39:49;33.92;;;12.27;;
37595;SDS011;23442;48.182;11.552;2022-07-23T14:42:16;43.60;;;14.70;;
37595;SDS011;23442;48.182;11.552;2022-07-23T14:44:43;28.33;;;11.20;;
37595;SDS011;23442;48.182;11.552;2022-07-23T14:47:09;30.17;;;10.93;;
37595;SDS011;23442;48.182;11.552;2022-07-23T14:49:35;21.50;;;9.88;;
37595;SDS011;23442;48.182;11.552;2022-07-23T14:52:02;25.13;;;10.05;;
37595;SDS011;23442;48.182;11.552;2022-07-23T14:54:29;21.25;;;9.73;;
37595;SDS011;23442;48.182;11.552;2022-07-23T14:56:56;21.50;;;9.48;;
37595;SDS011;23442;48.182;11.552;2022-07-23T14:59:23;24.33;;;10.13;;
37595;SDS011;23442;48.182;11.552;2022-07-23T15:01:50;32.85;;;11.10;;
37595;SDS011;23442;48.182;11.552;2022-07-23T15:04:16;15.48;;;7.95;;
37595;SDS011;23442;48.182;11.552;2022-07-23T15:06:42;19.35;;;8.77;;
37595;SDS011;23442;48.182;11.552;2022-07-23T15:09:09;34.00;;;10.32;;
37595;SDS011;23442;48.182;11.552;2022-07-23T15:11:36;28.27;;;10.48;;
37595;SDS011;23442;48.182;11.552;2022-07-23T15:14:03;26.40;;;9.27;;
37595;SDS011;23442;48.182;11.552;2022-07-23T15:16:30;28.70;;;10.27;;
37595;SDS011;23442;48.182;11.552;2022-07-23T15:18:56;27.15;;;9.93;;
37595;SDS011;23442;48.182;11.552;2022-07-23T15:21:22;24.00;;;9.70;;
37595;SDS011;23442;48.182;11.552;2022-07-23T15:23:49;29.02;;;10.38;;
37595;SDS011;23442;48.182;11.552;2022-07-23T15:26:15;25.17;;;10.30;;
37595;SDS011;23442;48.182;11.552;2022-07-23T15:28:43;20.75;;;8.63;;